Time;durP1;ratioP1;P1;durP2;ratioP2;P2;SDS_P1;SDS_P2;PMS_P1;PMS_P2;Temp;Humidity;BMP_temperature;BMP_pressure;BME280_temperature;BME280_humidity;BME280_pressure;Samples;Min_cycle;Max_cycle;Signal;HPM_P1;HPM_P2
2023/01/08 00:02:14;;;;;;;5.20;2.70;;;9.20;99.90;;;;;;5107736;28;20133;-80
2023/01/08 00:04:41;;;;;;;4.30;2.20;;;9.10;99.90;;;;;;5090372;28;20076;-80
2023/01/08 00:07:08;;;;;;;4.70;2.30;;;9.10;99.90;;;;;;5091076;28;20094;-80
2023/01/08 00:09:34;;;;;;;4.25;2.40;;;9.10;99.90;;;;;;5086830;28;20147;-80
2023/01/08 00:12:01;;;;;;;4.35;2.50;;;9.10;99.90;;;;;;5090791;28;20497;-80
2023/01/08 00:14:29;;;;;;;4.18;2.50;;;9.10;99.90;;;;;;5090574;28;20044;-80
2023/01/08 00:16:56;;;;;;;5.10;2.45;;;9.10;99.90;;;;;;5090536;28;20076;-80
2023/01/08 00:19:22;;;;;;;6.25;2.70;;;9.10;99.90;;;;;;5090652;28;20547;-80
2023/01/08 00:21:49;;;;;;;5.13;2.60;;;9.10;99.90;;;;;;5106918;28;20198;-79
2023/01/08 00:24:16;;;;;;;4.88;2.50;;;9.10;99.90;;;;;;5107145;28;20052;-80
2023/01/08 00:26:42;;;;;;;4.80;2.35;;;9.10;99.90;;;;;;5106847;28;20066;-79
2023/01/08 00:29:09;;;;;;;6.22;2.40;;;9.10;99.90;;;;;;5082545;28;20547;-80
2023/01/08 00:31:36;;;;;;;4.20;2.40;;;9.00;99.90;;;;;;5110661;28;20558;-80
2023/01/08 00:34:03;;;;;;;6.78;2.50;;;9.10;99.90;;;;;;5093792;28;20066;-79
2023/01/08 00:36:29;;;;;;;4.10;2.22;;;9.00;99.90;;;;;;5110231;28;20131;-79
2023/01/08 00:38:58;;;;;;;5.47;2.65;;;9.00;99.90;;;;;;5105620;28;20037;-80
2023/01/08 00:41:24;;;;;;;4.05;2.15;;;8.90;99.90;;;;;;5090215;28;20493;-80
2023/01/08 00:43:51;;;;;;;5.55;2.65;;;8.90;99.90;;;;;;5072987;28;20044;-80
2023/01/08 00:46:18;;;;;;;4.78;2.15;;;8.90;99.90;;;;;;5090021;28;20040;-80
2023/01/08 00:48:44;;;;;;;4.10;2.47;;;8.90;99.90;;;;;;5089783;28;20044;-80
2023/01/08 00:51:11;;;;;;;4.32;2.28;;;8.90;99.90;;;;;;5090497;28;20040;-79
2023/01/08 00:53:38;;;;;;;5.78;2.90;;;8.90;99.90;;;;;;5105711;28;20189;-79
2023/01/08 00:56:07;;;;;;;5.20;2.20;;;9.00;99.90;;;;;;5073355;28;20837;-80
2023/01/08 00:58:34;;;;;;;5.40;2.40;;;9.00;99.90;;;;;;5089623;28;20587;-79
2023/01/08 01:01:07;;;;;;;4.53;2.28;;;9.00;99.90;;;;;;5104016;28;20093;-80
2023/01/08 01:03:34;;;;;;;4.50;2.40;;;9.00;99.90;;;;;;5109660;28;20047;-80
2023/01/08 01:06:02;;;;;;;6.22;2.70;;;9.00;99.90;;;;;;5093279;28;20039;-80
2023/01/08 01:08:29;;;;;;;6.40;2.47;;;9.00;99.90;;;;;;5109937;28;20129;-80
2023/01/08 01:10:56;;;;;;;4.05;2.60;;;9.10;99.90;;;;;;5116382;28;20098;-80
2023/01/08 01:13:22;;;;;;;4.28;2.35;;;9.10;99.90;;;;;;5106238;28;20052;-80
2023/01/08 01:15:57;;;;;;;5.30;2.45;;;9.10;99.90;;;;;;5105680;28;20047;-79
2023/01/08 01:18:24;;;;;;;3.90;2.40;;;9.10;99.90;;;;;;5089439;28;20546;-80
2023/01/08 01:20:50;;;;;;;6.80;2.65;;;9.10;99.90;;;;;;5074476;28;20095;-80
2023/01/08 01:23:17;;;;;;;4.50;2.50;;;9.00;99.90;;;;;;5079598;28;20036;-79
2023/01/08 01:25:44;;;;;;;8.38;2.90;;;9.00;99.90;;;;;;5093016;28;20540;-80
2023/01/08 01:28:10;;;;;;;6.72;2.75;;;9.00;99.90;;;;;;5109345;28;20039;-80
2023/01/08 01:30:37;;;;;;;4.63;2.72;;;8.90;99.90;;;;;;5091844;28;20713;-80
2023/01/08 01:33:04;;;;;;;6.10;2.60;;;8.90;99.90;;;;;;5089003;28;20045;-79
2023/01/08 01:35:30;;;;;;;5.18;2.95;;;8.90;99.90;;;;;;5105861;28;20508;-80
2023/01/08 01:37:57;;;;;;;6.07;2.45;;;8.90;99.90;;;;;;5089006;28;20131;-80
2023/01/08 01:40:24;;;;;;;4.43;2.50;;;9.00;99.90;;;;;;5089716;28;20040;-80
2023/01/08 01:42:50;;;;;;;4.30;2.65;;;9.00;99.90;;;;;;5104926;28;20033;-80
2023/01/08 01:45:28;;;;;;;7.40;2.85;;;9.00;99.90;;;;;;5077722;28;20737;-79
2023/01/08 01:48:07;;;;;;;5.13;2.90;;;9.00;99.90;;;;;;5105253;28;20087;-80
2023/01/08 01:50:41;;;;;;;5.22;2.60;;;9.00;99.90;;;;;;5088898;28;20496;-80
2023/01/08 01:53:14;;;;;;;6.85;2.80;;;8.90;99.90;;;;;;5107143;28;20076;-80
2023/01/08 01:55:42;;;;;;;5.97;2.95;;;8.90;99.90;;;;;;5090084;28;20068;-80
2023/01/08 01:58:14;;;;;;;4.18;2.53;;;8.90;99.90;;;;;;5105816;28;20032;-80
2023/01/08 02:00:42;;;;;;;4.57;2.63;;;8.90;99.90;;;;;;5108674;28;20051;-79
2023/01/08 02:03:12;;;;;;;4.40;2.53;;;8.90;99.90;;;;;;5125826;28;20040;-80
2023/01/08 02:05:54;;;;;;;4.65;2.47;;;8.90;99.90;;;;;;5095310;28;20441;-80
2023/01/08 02:08:31;;;;;;;7.65;3.90;;;8.90;99.90;;;;;;5088931;28;20044;-80
2023/01/08 02:11:11;;;;;;;4.93;2.45;;;8.90;99.90;;;;;;5104866;28;20052;-80
2023/01/08 02:13:43;;;;;;;5.75;2.35;;;8.90;99.90;;;;;;5088875;28;20053;-80
2023/01/08 02:16:18;;;;;;;3.67;1.77;;;8.90;99.90;;;;;;5088445;28;20052;-80
2023/01/08 02:18:55;;;;;;;5.68;2.28;;;8.90;99.90;;;;;;5125075;28;20044;-80
2023/01/08 02:21:45;;;;;;;4.78;1.73;;;8.90;99.90;;;;;;5108759;28;20044;-80
2023/01/08 02:24:15;;;;;;;5.53;2.00;;;8.90;99.90;;;;;;5125515;28;20039;-79
2023/01/08 02:26:44;;;;;;;5.55;1.70;;;8.90;99.90;;;;;;5125476;28;20028;-80
2023/01/08 02:29:17;;;;;;;7.28;1.80;;;8.80;99.90;;;;;;5108543;28;20040;-80
2023/01/08 02:31:44;;;;;;;7.55;1.58;;;8.80;99.90;;;;;;5108488;28;20039;-79
2023/01/08 02:34:11;;;;;;;4.82;1.33;;;8.80;99.90;;;;;;5108624;28;20511;-80
2023/01/08 02:36:50;;;;;;;5.55;1.80;;;8.80;99.90;;;;;;5102050;28;20044;-80
2023/01/08 02:39:25;;;;;;;5.90;1.52;;;8.70;99.90;;;;;;5105239;28;20036;-80
2023/01/08 02:42:01;;;;;;;;;;;8.70;99.90;;;;;;5106381;28;20051;-80
2023/01/08 02:44:45;;;;;;;5.67;1.43;;;8.60;99.90;;;;;;5108485;28;19920;-80
2023/01/08 02:47:40;;;;;;;7.85;1.50;;;8.60;99.90;;;;;;5107637;28;20035;-80
2023/01/08 02:50:13;;;;;;;9.15;1.45;;;8.50;99.90;;;;;;5124967;28;20040;-80
2023/01/08 02:52:59;;;;;;;5.07;1.35;;;8.50;99.90;;;;;;5125696;28;20123;-80
2023/01/08 02:55:28;;;;;;;7.32;1.50;;;8.40;99.90;;;;;;5108978;28;20122;-79
2023/01/08 02:57:56;;;;;;;7.60;1.83;;;8.40;99.90;;;;;;5108889;28;20075;-79
2023/01/08 03:00:24;;;;;;;8.80;1.85;;;8.40;99.90;;;;;;5124923;28;20066;-80
2023/01/08 03:02:59;;;;;;;5.90;1.40;;;8.30;99.90;;;;;;5108118;28;20126;-80
2023/01/08 03:05:27;;;;;;;7.82;1.27;;;8.30;99.90;;;;;;5125370;28;20043;-80
2023/01/08 03:07:54;;;;;;;10.45;1.33;;;8.30;99.90;;;;;;5091853;28;20036;-79
2023/01/08 03:10:25;;;;;;;7.57;1.30;;;8.20;99.90;;;;;;5071451;28;20053;-80
2023/01/08 03:12:56;;;;;;;5.13;1.27;;;8.20;99.90;;;;;;5104563;28;20078;-80
2023/01/08 03:15:46;;;;;;;9.82;1.33;;;8.10;99.90;;;;;;5088250;28;20051;-80
2023/01/08 03:18:19;;;;;;;6.45;1.13;;;8.10;99.90;;;;;;5108296;28;20037;-80
2023/01/08 03:20:48;;;;;;;9.95;1.50;;;8.00;99.90;;;;;;5108825;28;20517;-80
2023/01/08 03:23:16;;;;;;;7.75;1.50;;;8.00;99.90;;;;;;5110116;28;20389;-79
2023/01/08 03:25:46;;;;;;;8.30;1.33;;;8.00;99.90;;;;;;5094966;28;20036;-80
2023/01/08 03:28:29;;;;;;;8.73;1.58;;;8.00;99.90;;;;;;5111218;28;20164;-79
2023/01/08 03:30:57;;;;;;;7.47;1.20;;;8.00;99.90;;;;;;5128022;28;20552;-80
2023/01/08 03:33:26;;;;;;;9.00;1.52;;;8.00;99.90;;;;;;5109655;28;20036;-80
2023/01/08 03:35:55;;;;;;;12.80;1.63;;;7.90;99.90;;;;;;5111175;28;20052;-79
2023/01/08 03:38:31;;;;;;;7.25;1.70;;;7.90;99.90;;;;;;5128559;28;20098;-80
2023/01/08 03:41:08;;;;;;;8.60;1.77;;;7.90;99.90;;;;;;5127873;28;20044;-79
2023/01/08 03:43:35;;;;;;;7.22;1.70;;;7.90;99.90;;;;;;5127122;28;20092;-80
2023/01/08 03:46:06;;;;;;;5.65;1.20;;;7.90;99.90;;;;;;5074043;28;20123;-80
2023/01/08 03:48:34;;;;;;;8.45;1.45;;;7.90;99.90;;;;;;5107687;28;20382;-79
2023/01/08 03:51:00;;;;;;;7.88;1.65;;;7.90;99.90;;;;;;5119948;28;20048;-79
2023/01/08 03:53:27;;;;;;;9.13;1.38;;;7.80;99.90;;;;;;5094933;28;20169;-80
2023/01/08 03:55:55;;;;;;;6.97;1.60;;;7.80;99.90;;;;;;5094975;28;20173;-79
2023/01/08 03:58:22;;;;;;;7.45;1.70;;;7.80;99.90;;;;;;5108462;28;20411;-80
2023/01/08 04:00:49;;;;;;;12.18;1.75;;;7.80;99.90;;;;;;5110957;28;20044;-80
2023/01/08 04:03:15;;;;;;;5.78;1.52;;;7.90;99.90;;;;;;5110605;28;20094;-80
2023/01/08 04:05:42;;;;;;;9.90;2.28;;;7.90;99.90;;;;;;5103227;28;20032;-80
2023/01/08 04:08:09;;;;;;;7.72;1.48;;;7.90;99.90;;;;;;5118539;28;20102;-80
2023/01/08 04:10:35;;;;;;;8.25;1.38;;;7.90;99.90;;;;;;5136198;28;20101;-80
2023/01/08 04:13:02;;;;;;;9.43;2.83;;;7.90;99.90;;;;;;5098673;28;20161;-79
2023/01/08 04:15:29;;;;;;;5.43;1.50;;;7.90;99.90;;;;;;5108290;28;20048;-80
2023/01/08 04:17:55;;;;;;;5.13;1.83;;;7.90;99.90;;;;;;5074862;28;20048;-80
2023/01/08 04:20:22;;;;;;;7.00;1.73;;;7.90;99.90;;;;;;5090800;28;20146;-79
2023/01/08 04:22:49;;;;;;;6.90;1.70;;;7.80;99.90;;;;;;5108312;28;20064;-80
2023/01/08 04:25:15;;;;;;;7.95;1.88;;;7.90;99.90;;;;;;5090197;28;20028;-80
2023/01/08 04:27:42;;;;;;;7.18;2.42;;;7.90;99.90;;;;;;5106899;28;20530;-80
2023/01/08 04:30:09;;;;;;;9.15;2.10;;;7.90;99.90;;;;;;5089793;28;20097;-80
2023/01/08 04:32:36;;;;;;;5.95;2.20;;;7.90;99.90;;;;;;5075080;28;20552;-80
2023/01/08 04:35:03;;;;;;;3.88;2.00;;;8.00;99.90;;;;;;5076572;28;20182;-80
2023/01/08 04:37:29;;;;;;;6.90;2.33;;;8.00;99.90;;;;;;5127516;28;20044;-79
2023/01/08 04:39:56;;;;;;;7.47;2.65;;;8.00;99.90;;;;;;5110454;28;20028;-80
2023/01/08 04:42:23;;;;;;;3.97;1.90;;;8.10;99.90;;;;;;5126476;28;20044;-80
2023/01/08 04:44:50;;;;;;;3.35;1.95;;;8.10;99.90;;;;;;5090266;28;20036;-80
2023/01/08 04:47:16;;;;;;;6.97;2.40;;;8.10;99.90;;;;;;5073102;28;20043;-80
2023/01/08 04:49:43;;;;;;;5.25;1.80;;;8.20;99.90;;;;;;5090447;28;20036;-79
2023/01/08 04:52:10;;;;;;;4.32;2.10;;;8.20;99.90;;;;;;5073295;28;20040;-80
2023/01/08 04:54:36;;;;;;;4.40;2.08;;;8.20;99.90;;;;;;5106710;28;20044;-80
2023/01/08 04:57:03;;;;;;;7.10;1.80;;;8.20;99.90;;;;;;5073023;28;20064;-80
2023/01/08 04:59:30;;;;;;;6.35;1.90;;;8.30;99.90;;;;;;5090111;28;20131;-80
2023/01/08 05:01:57;;;;;;;4.60;2.00;;;8.40;99.90;;;;;;5073321;28;20095;-81
2023/01/08 05:04:24;;;;;;;5.30;1.60;;;8.40;99.90;;;;;;5109540;28;20044;-80
2023/01/08 05:06:51;;;;;;;4.82;2.10;;;8.40;99.90;;;;;;5090013;28;20366;-80
2023/01/08 05:09:17;;;;;;;4.97;2.08;;;8.40;99.90;;;;;;5089684;28;20040;-80
2023/01/08 05:11:44;;;;;;;7.78;2.20;;;8.40;99.90;;;;;;5056541;28;20049;-80
2023/01/08 05:14:11;;;;;;;4.10;2.13;;;8.50;99.90;;;;;;5091932;28;20119;-80
2023/01/08 05:16:40;;;;;;;7.63;1.80;;;8.50;99.90;;;;;;5076228;28;20048;-80
2023/01/08 05:19:07;;;;;;;5.63;1.95;;;8.40;99.90;;;;;;5109792;28;20516;-80
2023/01/08 05:21:34;;;;;;;4.88;1.70;;;8.40;99.90;;;;;;5092734;28;20043;-80
2023/01/08 05:24:00;;;;;;;5.38;1.80;;;8.40;99.90;;;;;;5109639;28;20036;-80
2023/01/08 05:26:27;;;;;;;4.43;1.80;;;8.40;99.90;;;;;;5090639;28;20378;-80
2023/01/08 05:28:53;;;;;;;6.40;1.83;;;8.40;99.90;;;;;;5105947;28;20409;-81
2023/01/08 05:31:20;;;;;;;4.90;1.88;;;8.40;99.90;;;;;;5088898;28;20473;-81
2023/01/08 05:33:47;;;;;;;4.28;1.83;;;8.40;99.90;;;;;;5072735;28;20052;-81
2023/01/08 05:36:14;;;;;;;4.88;2.08;;;8.40;99.90;;;;;;5100936;28;20123;-80
2023/01/08 05:38:40;;;;;;;3.55;1.45;;;8.40;99.90;;;;;;5109000;28;20127;-81
2023/01/08 05:41:08;;;;;;;7.10;1.70;;;8.40;99.90;;;;;;5108732;28;20492;-80
2023/01/08 05:43:35;;;;;;;7.85;2.03;;;8.40;99.90;;;;;;5125991;28;20090;-80
2023/01/08 05:46:03;;;;;;;6.25;1.95;;;8.30;99.90;;;;;;5125801;28;20032;-80
2023/01/08 05:48:32;;;;;;;5.35;2.38;;;8.40;99.90;;;;;;5107762;28;20086;-80
2023/01/08 05:50:58;;;;;;;3.28;1.48;;;8.40;99.90;;;;;;5109197;28;20160;-80
2023/01/08 05:53:25;;;;;;;5.57;1.73;;;8.30;99.90;;;;;;5092012;28;20069;-80
2023/01/08 05:56:01;;;;;;;3.60;1.50;;;8.30;99.90;;;;;;5103442;28;20037;-80
2023/01/08 05:58:27;;;;;;;3.17;1.60;;;8.30;99.90;;;;;;5088777;28;20149;-80
2023/01/08 06:01:01;;;;;;;3.85;1.80;;;8.30;99.90;;;;;;5088973;28;20066;-80
2023/01/08 06:03:28;;;;;;;2.90;1.45;;;8.20;99.90;;;;;;5088650;28;20041;-80
2023/01/08 06:06:00;;;;;;;3.92;1.40;;;8.20;99.90;;;;;;5089484;28;20048;-80
2023/01/08 06:08:28;;;;;;;4.15;1.50;;;8.20;99.90;;;;;;5091725;28;20036;-81
2023/01/08 06:11:03;;;;;;;4.88;1.98;;;8.10;99.90;;;;;;5125496;28;20063;-80
2023/01/08 06:13:30;;;;;;;3.70;1.47;;;8.10;99.90;;;;;;5108563;28;20079;-81
2023/01/08 06:16:00;;;;;;;3.35;1.40;;;8.10;99.90;;;;;;5092231;28;20282;-80
2023/01/08 06:18:28;;;;;;;4.45;1.30;;;8.10;99.90;;;;;;5106470;28;20031;-79
2023/01/08 06:20:55;;;;;;;6.43;1.50;;;8.00;99.90;;;;;;5125413;28;20040;-80
2023/01/08 06:23:22;;;;;;;4.60;1.58;;;8.00;99.90;;;;;;5108697;28;20508;-80
2023/01/08 06:25:53;;;;;;;6.80;1.95;;;8.00;99.90;;;;;;5075942;28;20036;-80
2023/01/08 06:28:20;;;;;;;6.32;1.88;;;8.00;99.90;;;;;;5112578;28;20045;-80
2023/01/08 06:30:47;;;;;;;4.32;1.88;;;8.00;99.90;;;;;;5071960;28;20033;-80
2023/01/08 06:33:14;;;;;;;5.40;1.80;;;7.90;99.90;;;;;;5104856;28;20033;-79
2023/01/08 06:35:41;;;;;;;7.28;1.90;;;7.90;99.90;;;;;;5072036;28;20060;-80
2023/01/08 06:38:08;;;;;;;6.53;2.42;;;7.90;99.90;;;;;;5094861;28;20048;-80
2023/01/08 06:40:34;;;;;;;5.78;2.13;;;8.00;99.90;;;;;;5105136;28;20047;-80
2023/01/08 06:43:02;;;;;;;6.78;2.35;;;8.00;99.90;;;;;;5087920;28;20181;-80
2023/01/08 06:45:29;;;;;;;8.85;2.45;;;8.00;99.90;;;;;;5087873;28;20032;-80
2023/01/08 06:48:04;;;;;;;7.28;2.40;;;7.90;99.90;;;;;;5110496;28;20491;-81
2023/01/08 06:50:32;;;;;;;6.50;2.33;;;7.90;99.90;;;;;;5108496;28;20039;-80
2023/01/08 06:52:59;;;;;;;5.13;1.88;;;7.90;99.90;;;;;;5112528;28;20039;-80
2023/01/08 06:55:26;;;;;;;9.57;2.08;;;7.90;99.90;;;;;;5128947;28;20036;-80
2023/01/08 06:57:57;;;;;;;4.88;1.88;;;7.90;99.90;;;;;;5095110;28;20055;-80
2023/01/08 07:00:26;;;;;;;8.18;2.13;;;7.90;99.90;;;;;;5091908;28;20079;-80
2023/01/08 07:02:53;;;;;;;6.35;1.63;;;7.90;99.90;;;;;;5108873;28;20040;-80
2023/01/08 07:05:20;;;;;;;7.53;1.95;;;7.90;99.90;;;;;;5091399;28;20039;-80
2023/01/08 07:07:47;;;;;;;4.45;1.50;;;7.90;99.90;;;;;;5075486;28;20480;-80
2023/01/08 07:10:13;;;;;;;5.80;1.80;;;7.80;99.90;;;;;;5090485;28;20056;-80
2023/01/08 07:12:40;;;;;;;7.63;1.80;;;7.80;99.90;;;;;;5108472;28;20560;-80
2023/01/08 07:15:07;;;;;;;6.53;1.63;;;7.80;99.90;;;;;;5075234;28;20123;-80
2023/01/08 07:17:34;;;;;;;4.95;1.70;;;7.80;99.90;;;;;;5075074;28;20101;-80
2023/01/08 07:20:01;;;;;;;3.75;1.40;;;7.80;99.90;;;;;;5076319;28;20040;-80
2023/01/08 07:22:27;;;;;;;6.45;1.50;;;7.80;99.90;;;;;;5091208;28;20070;-80
2023/01/08 07:24:54;;;;;;;6.80;1.60;;;7.80;99.90;;;;;;5108686;28;20045;-80
2023/01/08 07:27:21;;;;;;;4.18;1.40;;;7.80;99.90;;;;;;5107835;28;20043;-79
2023/01/08 07:29:51;;;;;;;8.75;1.55;;;7.80;99.90;;;;;;5091372;28;20058;-79
2023/01/08 07:32:17;;;;;;;7.53;1.50;;;7.80;99.90;;;;;;5111242;28;20384;-80
2023/01/08 07:34:44;;;;;;;4.75;1.38;;;7.80;99.90;;;;;;5111240;28;20153;-80
2023/01/08 07:37:11;;;;;;;6.75;1.35;;;7.70;99.90;;;;;;5094850;28;20043;-80
2023/01/08 07:39:37;;;;;;;4.45;1.30;;;7.80;99.90;;;;;;5079827;28;20076;-80
2023/01/08 07:42:04;;;;;;;7.80;1.40;;;7.70;99.90;;;;;;5110082;28;20220;-80
2023/01/08 07:44:31;;;;;;;4.28;1.20;;;7.70;99.90;;;;;;5111330;28;20054;-80
2023/01/08 07:46:57;;;;;;;5.05;1.30;;;7.70;99.90;;;;;;5131067;28;20038;-80
2023/01/08 07:49:24;;;;;;;4.18;1.42;;;7.70;99.90;;;;;;5130778;28;20039;-80
2023/01/08 07:51:51;;;;;;;4.97;1.20;;;7.60;99.90;;;;;;5081262;28;20105;-82
2023/01/08 07:54:18;;;;;;;7.45;1.30;;;7.60;99.90;;;;;;5121220;28;20114;-80
2023/01/08 07:56:44;;;;;;;8.80;1.33;;;7.50;99.90;;;;;;5107699;28;20131;-80
2023/01/08 07:59:11;;;;;;;6.20;1.50;;;7.60;99.90;;;;;;5130710;28;20563;-79
2023/01/08 08:01:37;;;;;;;2.88;1.25;;;7.60;99.90;;;;;;5087972;28;20040;-80
2023/01/08 08:04:04;;;;;;;8.48;1.73;;;7.60;99.90;;;;;;5112304;28;20064;-79
2023/01/08 08:06:31;;;;;;;4.88;1.13;;;7.60;99.90;;;;;;5137807;28;20039;-80
2023/01/08 08:08:58;;;;;;;3.08;1.10;;;7.50;99.90;;;;;;5119268;28;20066;-79
2023/01/08 08:11:25;;;;;;;4.95;1.40;;;7.50;99.90;;;;;;5140001;28;20508;-80
2023/01/08 08:13:52;;;;;;;6.80;1.35;;;7.50;99.90;;;;;;5097588;28;20105;-79
2023/01/08 08:16:19;;;;;;;9.10;1.80;;;7.50;99.90;;;;;;5102122;28;20042;-80
2023/01/08 08:18:45;;;;;;;9.55;2.03;;;7.50;99.90;;;;;;5103713;28;20051;-80
2023/01/08 08:21:12;;;;;;;7.60;1.80;;;7.50;99.90;;;;;;5118979;28;20060;-80
2023/01/08 08:23:39;;;;;;;7.43;2.13;;;7.50;99.90;;;;;;5120500;28;20040;-80
2023/01/08 08:26:06;;;;;;;8.65;2.28;;;7.40;99.90;;;;;;5084425;28;20130;-80
2023/01/08 08:28:33;;;;;;;5.95;1.92;;;7.40;99.90;;;;;;5100616;28;20036;-80
2023/01/08 08:31:00;;;;;;;5.35;2.22;;;7.50;99.90;;;;;;5125590;28;20053;-80
2023/01/08 08:33:26;;;;;;;10.65;2.25;;;7.40;99.90;;;;;;5078286;28;20040;-80
2023/01/08 08:35:53;;;;;;;8.18;2.30;;;7.40;99.90;;;;;;5089561;28;20040;-80
2023/01/08 08:38:20;;;;;;;7.25;2.28;;;7.40;99.90;;;;;;5089856;28;20127;-80
2023/01/08 08:40:46;;;;;;;7.10;2.58;;;7.40;99.90;;;;;;5092293;28;20384;-81
2023/01/08 08:43:13;;;;;;;5.68;1.98;;;7.30;99.90;;;;;;5109880;28;20040;-79
2023/01/08 08:45:40;;;;;;;10.52;2.22;;;7.30;99.90;;;;;;5099100;28;20043;-77
2023/01/08 08:48:07;;;;;;;6.93;2.42;;;7.30;99.90;;;;;;5111722;28;20038;-80
2023/01/08 08:50:34;;;;;;;9.40;2.90;;;7.30;99.90;;;;;;5112541;28;20802;-80
2023/01/08 08:53:02;;;;;;;9.98;1.98;;;7.30;99.90;;;;;;5132193;28;20404;-81
2023/01/08 08:55:29;;;;;;;6.20;2.05;;;7.30;99.90;;;;;;5134002;28;20498;-80
2023/01/08 08:58:05;;;;;;;9.70;1.90;;;7.30;99.90;;;;;;5126784;28;20126;-80
2023/01/08 09:00:32;;;;;;;6.75;2.00;;;7.30;99.90;;;;;;5137567;28;20044;-80
2023/01/08 09:02:59;;;;;;;8.52;2.33;;;7.30;99.90;;;;;;5117287;28;20051;-80
2023/01/08 09:05:26;;;;;;;7.13;1.70;;;7.20;99.90;;;;;;5115272;28;20484;-80
2023/01/08 09:07:53;;;;;;;4.68;1.48;;;7.30;99.90;;;;;;5099930;28;20036;-80
2023/01/08 09:10:21;;;;;;;4.82;1.30;;;7.30;99.90;;;;;;5095687;28;20063;-80
2023/01/08 09:12:48;;;;;;;12.77;1.75;;;7.30;99.90;;;;;;5131090;28;20055;-79
2023/01/08 09:15:15;;;;;;;3.80;1.33;;;7.30;99.90;;;;;;5113833;28;20044;-80
2023/01/08 09:17:42;;;;;;;5.20;1.50;;;7.40;99.90;;;;;;5091247;28;20048;-80
2023/01/08 09:20:10;;;;;;;5.93;1.52;;;7.40;99.90;;;;;;5124590;28;20503;-80
2023/01/08 09:22:37;;;;;;;6.93;1.35;;;7.40;99.90;;;;;;5123959;28;20043;-80
2023/01/08 09:25:04;;;;;;;6.90;1.33;;;7.30;99.90;;;;;;5107797;28;20484;-80
2023/01/08 09:27:30;;;;;;;5.28;1.45;;;7.40;99.90;;;;;;5107654;28;20043;-80
2023/01/08 09:29:57;;;;;;;5.00;1.73;;;7.40;99.90;;;;;;5107156;28;20449;-80
2023/01/08 09:32:24;;;;;;;3.15;1.25;;;7.40;99.90;;;;;;5086920;28;20040;-80
2023/01/08 09:34:50;;;;;;;6.25;1.40;;;7.50;99.90;;;;;;5088452;28;20126;-80
2023/01/08 09:37:17;;;;;;;5.57;1.45;;;7.50;99.90;;;;;;5089001;28;20047;-80
2023/01/08 09:39:44;;;;;;;4.57;1.30;;;7.50;99.90;;;;;;5069711;28;20121;-80
2023/01/08 09:42:13;;;;;;;6.78;1.50;;;7.50;99.90;;;;;;5111037;28;20059;-80
2023/01/08 09:44:42;;;;;;;5.93;1.40;;;7.50;99.90;;;;;;5124224;28;20040;-80
2023/01/08 09:47:38;;;;;;;10.00;2.03;;;7.60;99.90;;;;;;5112050;28;20111;-79
2023/01/08 09:50:10;;;;;;;5.97;1.38;;;7.60;99.90;;;;;;5120806;28;20427;-80
2023/01/08 09:52:38;;;;;;;5.10;1.33;;;7.60;99.90;;;;;;5106295;28;20043;-81
2023/01/08 09:55:15;;;;;;;3.08;1.10;;;7.60;99.90;;;;;;5109002;28;20074;-81
2023/01/08 09:57:43;;;;;;;4.55;1.40;;;7.60;99.90;;;;;;5100716;28;20036;-81
2023/01/08 10:00:25;;;;;;;8.07;1.13;;;7.60;99.90;;;;;;5089587;28;20923;-81
2023/01/08 10:02:53;;;;;;;3.30;1.23;;;7.70;99.90;;;;;;5125040;28;20381;-81
2023/01/08 10:05:20;;;;;;;6.60;1.27;;;7.70;99.90;;;;;;5105410;28;20040;-80
2023/01/08 10:07:47;;;;;;;5.68;1.25;;;7.70;99.90;;;;;;5105703;28;20120;-81
2023/01/08 10:10:28;;;;;;;4.40;1.27;;;7.80;99.90;;;;;;5124862;28;20135;-80
2023/01/08 10:12:55;;;;;;;4.03;1.27;;;7.80;99.90;;;;;;5102488;28;20044;-81
2023/01/08 10:15:22;;;;;;;7.85;1.50;;;7.80;99.90;;;;;;5108139;28;20048;-81
2023/01/08 10:18:11;;;;;;;6.28;1.15;;;7.80;99.90;;;;;;5106647;28;20115;-81
2023/01/08 10:20:39;;;;;;;6.50;1.63;;;7.80;99.90;;;;;;5102705;28;20084;-80
2023/01/08 10:23:11;;;;;;;2.30;0.90;;;7.90;99.90;;;;;;5115733;28;20529;-80
2023/01/08 10:25:56;;;;;;;4.40;1.30;;;7.90;99.90;;;;;;5121523;28;20097;-81
2023/01/08 10:28:28;;;;;;;6.10;1.40;;;7.90;99.90;;;;;;5116632;28;20036;-81
2023/01/08 10:31:10;;;;;;;6.75;1.30;;;7.90;99.90;;;;;;5123437;28;20055;-81
2023/01/08 10:33:39;;;;;;;4.72;1.15;;;7.90;99.90;;;;;;5134354;28;20116;-81
2023/01/08 10:36:09;;;;;;;3.75;1.10;;;8.00;99.90;;;;;;5112658;28;20058;-81
2023/01/08 10:38:41;;;;;;;4.30;1.40;;;8.00;99.90;;;;;;5126800;28;20118;-80
2023/01/08 10:41:13;;;;;;;6.65;1.33;;;8.00;99.90;;;;;;5105513;28;20136;-80
2023/01/08 10:43:58;;;;;;;8.90;1.40;;;8.00;99.90;;;;;;5130216;28;20404;-81
2023/01/08 10:46:30;;;;;;;6.85;1.42;;;8.00;99.90;;;;;;5111430;28;20047;-80
2023/01/08 10:48:59;;;;;;;7.50;1.45;;;8.00;99.90;;;;;;5127065;28;20089;-80
2023/01/08 10:51:28;;;;;;;8.32;1.50;;;8.10;99.90;;;;;;5111551;28;20132;-80
2023/01/08 10:54:00;;;;;;;7.90;1.33;;;8.10;99.90;;;;;;5121292;28;20055;-81
2023/01/08 10:56:29;;;;;;;9.38;1.40;;;8.10;99.90;;;;;;5111872;28;20063;-80
2023/01/08 10:58:56;;;;;;;7.88;1.45;;;8.10;99.90;;;;;;5093660;28;20396;-80
2023/01/08 11:01:28;;;;;;;6.50;1.30;;;8.10;99.90;;;;;;5108175;28;20044;-81
2023/01/08 11:04:00;;;;;;;8.10;1.55;;;8.10;99.90;;;;;;5085903;28;20047;-80
2023/01/08 11:06:30;;;;;;;4.72;1.20;;;8.20;99.90;;;;;;5110630;28;20040;-80
2023/01/08 11:09:00;;;;;;;9.02;1.55;;;8.20;99.90;;;;;;5124932;28;20039;-80
2023/01/08 11:11:34;;;;;;;8.52;1.52;;;8.20;99.90;;;;;;5104235;28;20060;-81
2023/01/08 11:14:05;;;;;;;8.20;1.33;;;8.20;99.90;;;;;;5093855;28;20083;-80
2023/01/08 11:16:38;;;;;;;6.93;1.58;;;8.30;99.90;;;;;;5091279;28;20389;-80
2023/01/08 11:19:23;;;;;;;3.95;1.23;;;8.30;99.90;;;;;;5103325;28;20039;-80
2023/01/08 11:21:55;;;;;;;6.20;1.48;;;8.30;99.90;;;;;;5120712;28;20040;-80
2023/01/08 11:24:29;;;;;;;7.40;1.38;;;8.30;99.90;;;;;;5131960;28;20063;-80
2023/01/08 11:27:06;;;;;;;10.48;1.23;;;8.30;99.90;;;;;;5110607;28;20495;-81
2023/01/08 11:29:57;;;;;;;7.53;1.50;;;8.30;99.90;;;;;;5127014;28;20032;-80
2023/01/08 11:32:43;;;;;;;5.00;1.48;;;8.30;99.90;;;;;;5117409;28;20123;-80
2023/01/08 11:35:20;;;;;;;;;;;8.40;99.90;;;;;;5136993;28;20446;-80
2023/01/08 11:37:52;;;;;;;10.48;1.90;;;8.40;99.90;;;;;;5116728;28;19985;-80
2023/01/08 11:40:31;;;;;;;7.50;1.55;;;8.40;99.90;;;;;;5132718;28;20048;-80
2023/01/08 11:43:24;;;;;;;9.07;1.70;;;8.40;99.90;;;;;;5104416;28;20036;-80
2023/01/08 11:46:13;;;;;;;9.38;2.10;;;8.40;99.90;;;;;;5118886;28;20059;-79
2023/01/08 11:49:29;;;;;;;9.63;2.40;;;8.40;99.90;;;;;;5115468;28;20090;-80
2023/01/08 11:52:05;;;;;;;8.70;1.90;;;8.40;99.90;;;;;;5117278;28;20048;-80
2023/01/08 11:54:54;;;;;;;6.75;1.50;;;8.50;99.90;;;;;;5109663;28;20039;-80
2023/01/08 11:57:50;;;;;;;16.70;3.13;;;8.50;99.90;;;;;;5129674;28;20416;-80
2023/01/08 12:00:47;;;;;;;6.05;1.55;;;8.50;99.90;;;;;;5120653;28;20451;-80
2023/01/08 12:03:34;;;;;;;10.18;1.67;;;8.60;99.90;;;;;;5139685;28;20047;-79
2023/01/08 12:06:17;;;;;;;8.68;1.52;;;8.60;99.90;;;;;;5106223;28;20059;-80
2023/01/08 12:09:09;;;;;;;11.05;2.95;;;8.50;99.90;;;;;;5111379;28;20040;-80
2023/01/08 12:12:00;;;;;;;10.52;1.73;;;8.50;99.90;;;;;;5112516;28;20056;-80
2023/01/08 12:14:45;;;;;;;8.20;1.80;;;8.50;99.90;;;;;;5123821;28;20126;-80
2023/01/08 12:17:18;;;;;;;10.43;1.80;;;8.50;99.90;;;;;;5130738;28;20415;-80
2023/01/08 12:20:14;;;;;;;7.72;1.98;;;8.50;99.90;;;;;;5110056;28;20497;-80
2023/01/08 12:23:00;;;;;;;8.77;1.50;;;8.50;99.90;;;;;;5119039;28;20050;-80
2023/01/08 12:25:42;;;;;;;13.80;1.70;;;8.60;99.90;;;;;;5129712;28;20032;-80
2023/01/08 12:28:36;;;;;;;8.52;1.38;;;8.50;99.90;;;;;;5111466;28;20040;-80
2023/01/08 12:31:33;;;;;;;20.98;2.08;;;8.60;99.90;;;;;;5128621;28;20055;-80
2023/01/08 12:34:30;;;;;;;30.90;4.30;;;8.60;99.90;;;;;;5134959;28;20043;-80
2023/01/08 12:37:08;;;;;;;25.10;3.10;;;8.70;99.90;;;;;;5129868;28;20032;-80
2023/01/08 12:40:03;;;;;;;10.60;1.60;;;8.70;99.90;;;;;;5108868;28;20036;-80
2023/01/08 12:42:33;;;;;;;13.98;2.13;;;8.70;99.90;;;;;;5133382;28;20039;-80
2023/01/08 12:45:02;;;;;;;6.85;1.40;;;8.70;99.90;;;;;;5125142;28;20128;-80
2023/01/08 12:47:34;;;;;;;10.18;1.85;;;8.70;99.90;;;;;;5114332;28;20047;-80
2023/01/08 12:50:19;;;;;;;12.20;1.63;;;8.70;99.90;;;;;;5115997;28;20548;-80
2023/01/08 12:53:07;;;;;;;5.78;1.38;;;8.60;99.90;;;;;;5114425;28;20551;-80
2023/01/08 12:55:57;;;;;;;6.47;1.80;;;8.50;99.90;;;;;;5110639;28;20039;-80
2023/01/08 12:58:49;;;;;;;10.02;1.83;;;8.60;99.90;;;;;;5075696;28;20040;-81
2023/01/08 13:01:24;;;;;;;7.97;1.58;;;8.50;99.90;;;;;;5138608;28;20644;-80
2023/01/08 13:03:53;;;;;;;14.13;1.83;;;8.50;99.90;;;;;;5120881;28;20032;-80
2023/01/08 13:06:21;;;;;;;11.90;2.00;;;8.50;99.90;;;;;;5115359;28;20156;-80
2023/01/08 13:08:54;;;;;;;10.45;4.55;;;8.50;99.90;;;;;;5107455;28;20063;-80
2023/01/08 13:11:30;;;;;;;11.25;2.00;;;8.50;99.90;;;;;;5109959;28;20148;-80
2023/01/08 13:14:10;;;;;;;6.25;1.67;;;8.50;99.90;;;;;;5117609;28;20055;-80
2023/01/08 13:16:38;;;;;;;9.98;2.10;;;8.50;99.90;;;;;;5089512;28;20815;-81
2023/01/08 13:19:20;;;;;;;12.82;2.50;;;8.50;99.90;;;;;;5108680;28;20047;-80